2NC6 weather

Public forecast

Using degrees Fahrenheit for public forecast. Weather courtesy of forecast.io.

Closest aviation weather report (METAR) to Flying M Airport

Closest report is Davidson County Airport, 4.6 nm (8.6 km) ESE. Retrieved 2020/08/11 09:35 UTC (7 minutes ago):

KEXX 110935Z AUTO 00000KT 7SM SCT120 22/22 A2998 RMK AO2 T02160216

Closest aviation forecast (TAF) to Flying M Airport

Closest forecast is Smith Reynolds Airport, 21.8 nm (40.3 km) NNE. Retrieved 2020/08/11 06:45 UTC (3 hours ago):

TAF KINT 110540Z 1106/1206 17004KT P6SM BKN100 TEMPO 1109/1113 VRB02KT 3SM BR BKN005 FM111500 17004KT P6SM SCT035 SCT100 BKN250